Map

Track Data

SID SEASON NUMBER BASIN SUBBASIN NAME ISO_TIME NATURE LAT LON WMO_WIND WMO_PRES WMO_AGENCY TRACK_TYPE DIST2LAND LANDFALL IFLAG USA_AGENCY USA_ATCF_ID USA_LAT USA_LON USA_RECORD USA_STATUS USA_WIND USA_PRES USA_SSHS USA_R34_NE USA_R34_SE USA_R34_SW USA_R34_NW USA_R50_NE USA_R50_SE USA_R50_SW USA_R50_NW USA_R64_NE USA_R64_SE USA_R64_SW USA_R64_NW USA_POCI USA_ROCI USA_RMW USA_EYE TOKYO_LAT TOKYO_LON TOKYO_GRADE TOKYO_WIND TOKYO_PRES TOKYO_R50_DIR TOKYO_R50_LONG TOKYO_R50_SHORT TOKYO_R30_DIR TOKYO_R30_LONG TOKYO_R30_SHORT TOKYO_LAND CMA_LAT CMA_LON CMA_CAT CMA_WIND CMA_PRES HKO_LAT HKO_LON HKO_CAT HKO_WIND HKO_PRES NEWDELHI_LAT NEWDELHI_LON NEWDELHI_GRADE NEWDELHI_WIND NEWDELHI_PRES NEWDELHI_CI NEWDELHI_DP NEWDELHI_POCI REUNION_LAT REUNION_LON REUNION_TYPE REUNION_WIND REUNION_PRES REUNION_TNUM REUNION_CI REUNION_RMW REUNION_R34_NE REUNION_R34_SE REUNION_R34_SW REUNION_R34_NW REUNION_R50_NE REUNION_R50_SE REUNION_R50_SW REUNION_R50_NW REUNION_R64_NE REUNION_R64_SE REUNION_R64_SW REUNION_R64_NW BOM_LAT BOM_LON BOM_TYPE BOM_WIND BOM_PRES BOM_TNUM BOM_CI BOM_RMW BOM_R34_NE BOM_R34_SE BOM_R34_SW BOM_R34_NW BOM_R50_NE BOM_R50_SE BOM_R50_SW BOM_R50_NW BOM_R64_NE BOM_R64_SE BOM_R64_SW BOM_R64_NW BOM_ROCI BOM_POCI BOM_EYE BOM_POS_METHOD BOM_PRES_METHOD NADI_LAT NADI_LON NADI_CAT NADI_WIND NADI_PRES WELLINGTON_LAT WELLINGTON_LON WELLINGTON_WIND WELLINGTON_PRES DS824_LAT DS824_LON DS824_STAGE DS824_WIND DS824_PRES TD9636_LAT TD9636_LON TD9636_STAGE TD9636_WIND TD9636_PRES TD9635_LAT TD9635_LON TD9635_WIND TD9635_PRES TD9635_ROCI NEUMANN_LAT NEUMANN_LON NEUMANN_CLASS NEUMANN_WIND NEUMANN_PRES MLC_LAT MLC_LON MLC_CLASS MLC_WIND MLC_PRES USA_GUST BOM_GUST BOM_GUST_PER REUNION_GUST REUNION_GUST_PER USA_SEAHGT USA_SEARAD_NE USA_SEARAD_SE USA_SEARAD_SW USA_SEARAD_NW STORM_SPEED STORM_DIR
1892295N23267 1892 55 NA GM NOT_NAMED 1892-10-21 00:00:00 TS 23.0000 -92.6000 35 hurdat_atl main 318 310 O_____________ hurdat_atl AL091892 23.0000 -92.6000 TS 35 0 4 63
1892295N23267 1892 55 NA GM NOT_NAMED 1892-10-21 03:00:00 TS 23.0875 -92.4150 main 311 304 P_____________ AL091892 23.0875 -92.4150 TS 35 0 4 61
1892295N23267 1892 55 NA GM NOT_NAMED 1892-10-21 06:00:00 TS 23.2000 -92.2000 35 hurdat_atl main 305 299 O_____________ hurdat_atl AL091892 23.2000 -92.2000 TS 35 0 5 59
1892295N23267 1892 55 NA GM NOT_NAMED 1892-10-21 09:00:00 TS 23.3501 -91.9426 main 305 299 P_____________ AL091892 23.3501 -91.9426 TS 37 0 5 57
1892295N23267 1892 55 NA GM NOT_NAMED 1892-10-21 12:00:00 TS 23.5000 -91.7000 40 hurdat_atl main 304 299 O_____________ hurdat_atl AL091892 23.5000 -91.7000 TS 40 0 4 55
1892295N23267 1892 55 NA GM NOT_NAMED 1892-10-21 15:00:00 TS 23.6074 -91.5424 main 305 305 P_____________ AL091892 23.6074 -91.5424 TS 40 0 3 54
1892295N23267 1892 55 NA GM NOT_NAMED 1892-10-21 18:00:00 TS 23.7000 -91.4000 40 hurdat_atl main 311 308 O_____________ hurdat_atl AL091892 23.7000 -91.4000 TS 40 0 4 59
1892295N23267 1892 55 NA GM NOT_NAMED 1892-10-21 21:00:00 TS 23.7925 -91.2075 main 315 312 P_____________ AL091892 23.7925 -91.2075 TS 40 0 4 61
1892295N23267 1892 55 NA GM NOT_NAMED 1892-10-22 00:00:00 TS 23.9000 -91.0000 40 hurdat_atl main 321 318 O_____________ hurdat_atl AL091892 23.9000 -91.0000 TS 40 0 4 56
1892295N23267 1892 55 NA GM NOT_NAMED 1892-10-22 03:00:00 TS 24.0349 -90.8149 main 326 326 P_____________ AL091892 24.0349 -90.8149 TS 42 0 5 50
1892295N23267 1892 55 NA GM NOT_NAMED 1892-10-22 06:00:00 TS 24.2000 -90.6000 45 hurdat_atl main 342 340 O_____________ hurdat_atl AL091892 24.2000 -90.6000 TS 45 0 6 52
1892295N23267 1892 55 NA GM NOT_NAMED 1892-10-22 09:00:00 TS 24.3850 -90.3150 main 360 358 P_____________ AL091892 24.3850 -90.3150 TS 45 0 7 54
1892295N23267 1892 55 NA GM NOT_NAMED 1892-10-22 12:00:00 TS 24.6000 -90.0000 45 hurdat_atl main 374 374 O_____________ hurdat_atl AL091892 24.6000 -90.0000 TS 45 0 7 50
1892295N23267 1892 55 NA GM NOT_NAMED 1892-10-22 15:00:00 TS 24.8499 -89.7075 main 385 385 P_____________ AL091892 24.8499 -89.7075 TS 45 0 7 47
1892295N23267 1892 55 NA GM NOT_NAMED 1892-10-22 18:00:00 TS 25.1000 -89.4000 45 hurdat_atl main 410 408 O_____________ hurdat_atl AL091892 25.1000 -89.4000 TS 45 0 7 52
1892295N23267 1892 55 NA GM NOT_NAMED 1892-10-22 21:00:00 TS 25.3074 -89.0648 main 413 391 P_____________ AL091892 25.3074 -89.0648 TS 45 0 7 58
1892295N23267 1892 55 NA GM NOT_NAMED 1892-10-23 00:00:00 TS 25.5000 -88.7000 45 hurdat_atl main 392 374 O_____________ hurdat_atl AL091892 25.5000 -88.7000 TS 45 0 8 60
1892295N23267 1892 55 NA GM NOT_NAMED 1892-10-23 03:00:00 TS 25.7075 -88.3000 main 376 362 P_____________ AL091892 25.7075 -88.3000 TS 45 0 8 61
1892295N23267 1892 55 NA GM NOT_NAMED 1892-10-23 06:00:00 TS 25.9000 -87.9000 45 hurdat_atl main 365 358 O_____________ hurdat_atl AL091892 25.9000 -87.9000 TS 45 0 8 63
1892295N23267 1892 55 NA GM NOT_NAMED 1892-10-23 09:00:00 TS 26.0497 -87.5572 main 366 359 P_____________ AL091892 26.0497 -87.5572 TS 45 0 7 64
1892295N23267 1892 55 NA GM NOT_NAMED 1892-10-23 12:00:00 TS 26.2000 -87.2000 45 hurdat_atl main 364 360 O_____________ hurdat_atl AL091892 26.2000 -87.2000 TS 45 0 8 64
1892295N23267 1892 55 NA GM NOT_NAMED 1892-10-23 15:00:00 TS 26.4001 -86.7576 main 368 357 P_____________ AL091892 26.4001 -86.7576 TS 45 0 9 64
1892295N23267 1892 55 NA GM NOT_NAMED 1892-10-23 18:00:00 TS 26.6000 -86.3000 45 hurdat_atl main 357 320 O_____________ hurdat_atl AL091892 26.6000 -86.3000 TS 45 0 9 65
1892295N23267 1892 55 NA GM NOT_NAMED 1892-10-23 21:00:00 TS 26.7649 -85.8849 main 320 279 P_____________ AL091892 26.7649 -85.8849 TS 45 0 8 67
1892295N23267 1892 55 NA GM NOT_NAMED 1892-10-24 00:00:00 TS 26.9000 -85.5000 45 hurdat_atl main 279 247 O_____________ hurdat_atl AL091892 26.9000 -85.5000 TS 45 0 7 70
1892295N23267 1892 55 NA GM NOT_NAMED 1892-10-24 03:00:00 TS 27.0073 -85.1498 main 239 207 P_____________ AL091892 27.0073 -85.1498 TS 45 0 7 72
1892295N23267 1892 55 NA GM NOT_NAMED 1892-10-24 06:00:00 TS 27.1000 -84.8000 45 hurdat_atl main 207 175 O_____________ hurdat_atl AL091892 27.1000 -84.8000 TS 45 0 7 74
1892295N23267 1892 55 NA GM NOT_NAMED 1892-10-24 09:00:00 TS 27.1921 -84.4447 main 167 127 P_____________ AL091892 27.1921 -84.4447 TS 45 0 7 74
1892295N23267 1892 55 NA GM NOT_NAMED 1892-10-24 12:00:00 TS 27.3000 -84.0000 45 hurdat_atl main 127 51 O_____________ hurdat_atl AL091892 27.3000 -84.0000 TS 45 0 12 76
1892295N23267 1892 55 NA GM NOT_NAMED 1892-10-24 15:00:00 TS 27.4858 -83.1242 main 44 11 P_____________ AL091892 27.4858 -83.1242 TS 45 0 12 75
1892295N23267 1892 55 NA GM NOT_NAMED 1892-10-24 18:00:00 TS 27.6000 -82.7000 45 hurdat_atl main 11 11 O_____________ hurdat_atl AL091892 27.6000 -82.7000 TS 45 0 5 68
1892295N23267 1892 55 NA GM NOT_NAMED 1892-10-24 19:00:00 TS 27.6000 -82.8000 45 hurdat_atl main 14 9 O_____________ hurdat_atl AL091892 27.6000 -82.8000 L TS 45 0 6 68
1892295N23267 1892 55 NA NA NOT_NAMED 1892-10-24 21:00:00 TS 27.7116 -82.3934 main 0 0 P_____________ AL091892 27.7116 -82.3934 TS 42 0 20 76
1892295N23267 1892 55 NA NA NOT_NAMED 1892-10-25 00:00:00 TS 28.0000 -81.0000 40 hurdat_atl main 0 0 O_____________ hurdat_atl AL091892 28.0000 -81.0000 TS 40 0 21 77
1892295N23267 1892 55 NA NA NOT_NAMED 1892-10-25 03:00:00 TS 28.1714 -80.0480 main 59 59 P_____________ AL091892 28.1714 -80.0480 TS 37 0 16 79
1892295N23267 1892 55 NA NA NOT_NAMED 1892-10-25 06:00:00 TS 28.3000 -79.2000 35 hurdat_atl main 128 128 O_____________ hurdat_atl AL091892 28.3000 -79.2000 TS 35 0 15 80
1892295N23267 1892 55 NA NA NOT_NAMED 1892-10-25 09:00:00 TS 28.4145 -78.4048 main 205 205 P_____________ AL091892 28.4145 -78.4048 TS 35 0 13 81
1892295N23267 1892 55 NA NA NOT_NAMED 1892-10-25 12:00:00 TS 28.5000 -77.7000 35 hurdat_atl main 273 273 O_____________ hurdat_atl AL091892 28.5000 -77.7000 TS 35 0 12 84
1892295N23267 1892 55 NA NA NOT_NAMED 1892-10-25 15:00:00 TS 28.5497 -77.0547 main 331 331 P_____________ AL091892 28.5497 -77.0547 TS 35 0 11 85
1892295N23267 1892 55 NA NA NOT_NAMED 1892-10-25 18:00:00 TS 28.6000 -76.5000 35 hurdat_atl main 390 390 O_____________ hurdat_atl AL091892 28.6000 -76.5000 TS 35 0 9 81
1892295N23267 1892 55 NA NA NOT_NAMED 1892-10-25 21:00:00 TS 28.6920 -76.0350 main 439 439 P_____________ AL091892 28.6920 -76.0350 TS 35 0 8 76
1892295N23267 1892 55 NA NA NOT_NAMED 1892-10-26 00:00:00 TS 28.8000 -75.6000 35 hurdat_atl main 476 476 O_____________ hurdat_atl AL091892 28.8000 -75.6000 TS 35 0 8 76
1892295N23267 1892 55 NA NA NOT_NAMED 1892-10-26 03:00:00 TS 28.8923 -75.1148 main 512 512 P_____________ AL091892 28.8923 -75.1148 TS 37 0 9 77
1892295N23267 1892 55 NA NA NOT_NAMED 1892-10-26 06:00:00 TS 29.0000 -74.6000 40 hurdat_atl main 550 550 O_____________ hurdat_atl AL091892 29.0000 -74.6000 TS 40 0 9 75
1892295N23267 1892 55 NA NA NOT_NAMED 1892-10-26 09:00:00 TS 29.1346 -74.0797 main 590 590 P_____________ AL091892 29.1346 -74.0797 TS 40 0 10 73
1892295N23267 1892 55 NA NA NOT_NAMED 1892-10-26 12:00:00 TS 29.3000 -73.5000 40 hurdat_atl main 646 646 O_____________ hurdat_atl AL091892 29.3000 -73.5000 TS 40 0 12 74
1892295N23267 1892 55 NA NA NOT_NAMED 1892-10-26 15:00:00 TS 29.4628 -72.7996 main 676 676 P_____________ AL091892 29.4628 -72.7996 TS 42 0 13 72
1892295N23267 1892 55 NA NA NOT_NAMED 1892-10-26 18:00:00 TS 29.7000 -72.1000 45 hurdat_atl main 693 690 O_____________ hurdat_atl AL091892 29.7000 -72.1000 TS 45 0 13 61
1892295N23267 1892 55 NA NA NOT_NAMED 1892-10-26 21:00:00 TS 30.0772 -71.5053 main 694 688 P_____________ AL091892 30.0772 -71.5053 TS 45 0 12 50
1892295N23267 1892 55 NA NA NOT_NAMED 1892-10-27 00:00:00 TS 30.5000 -71.0000 45 hurdat_atl main 695 693 O_____________ hurdat_atl AL091892 30.5000 -71.0000 TS 45 0 11 46
1892295N23267 1892 55 NA NA NOT_NAMED 1892-10-27 03:00:00 TS 30.8497 -70.5694 main 700 700 P_____________ AL091892 30.8497 -70.5694 TS 45 0 10 44
1892295N23267 1892 55 NA NA NOT_NAMED 1892-10-27 06:00:00 TS 31.2000 -70.2000 45 hurdat_atl main 701 695 O_____________ hurdat_atl AL091892 31.2000 -70.2000 TS 45 0 10 40
1892295N23267 1892 55 NA NA NOT_NAMED 1892-10-27 09:00:00 TS 31.5999 -69.8349 main 704 695 P_____________ AL091892 31.5999 -69.8349 TS 45 0 10 37
1892295N23267 1892 55 NA NA NOT_NAMED 1892-10-27 12:00:00 TS 32.0000 -69.5000 45 hurdat_atl main 696 689 O_____________ hurdat_atl AL091892 32.0000 -69.5000 TS 45 0 9 35
1892295N23267 1892 55 NA NA NOT_NAMED 1892-10-27 15:00:00 TS 32.3649 -69.1922 main 691 691 P_____________ AL091892 32.3649 -69.1922 TS 45 0 9 36
1892295N23267 1892 55 NA NA NOT_NAMED 1892-10-27 18:00:00 TS 32.7000 -68.9000 45 hurdat_atl main 696 696 O_____________ hurdat_atl AL091892 32.7000 -68.9000 TS 45 0 8 39
1892295N23267 1892 55 NA NA NOT_NAMED 1892-10-27 21:00:00 TS 33.0000 -68.5922 main 704 704 P_____________ AL091892 33.0000 -68.5922 TS 45 0 8 40
1892295N23267 1892 55 NA NA NOT_NAMED 1892-10-28 00:00:00 TS 33.3000 -68.3000 45 hurdat_atl main 714 709 O_____________ hurdat_atl AL091892 33.3000 -68.3000 TS 45 0 8 35
1892295N23267 1892 55 NA NA NOT_NAMED 1892-10-28 03:00:00 TS 33.6424 -68.0497 main 726 718 P_____________ AL091892 33.6424 -68.0497 TS 45 0 8 31
1892295N23267 1892 55 NA NA NOT_NAMED 1892-10-28 06:00:00 TS 34.0000 -67.8000 45 hurdat_atl main 728 725 O_____________ hurdat_atl AL091892 34.0000 -67.8000 TS 45 0 8 34
1892295N23267 1892 55 NA NA NOT_NAMED 1892-10-28 09:00:00 TS 34.3200 -67.5070 main 745 742 P_____________ AL091892 34.3200 -67.5070 TS 45 0 9 35
1892295N23267 1892 55 NA NA NOT_NAMED 1892-10-28 12:00:00 TS 34.7000 -67.2000 45 hurdat_atl main 761 759 O_____________ hurdat_atl AL091892 34.7000 -67.2000 TS 45 0 11 29
1892295N23267 1892 55 NA NA NOT_NAMED 1892-10-28 15:00:00 TS 35.2425 -66.8854 main 772 719 P_____________ AL091892 35.2425 -66.8854 TS 45 0 12 24
1892295N23267 1892 55 NA NA NOT_NAMED 1892-10-28 18:00:00 TS 35.8000 -66.6000 45 hurdat_atl main 719 686 O_____________ hurdat_atl AL091892 35.8000 -66.6000 TS 45 0 11 23
1892295N23267 1892 55 NA NA NOT_NAMED 1892-10-28 21:00:00 TS 36.2149 -66.3695 main 686 654 P_____________ AL091892 36.2149 -66.3695 TS 45 0 9 22
1892295N23267 1892 55 NA NA NOT_NAMED 1892-10-29 00:00:00 TS 36.6000 -66.2000 45 hurdat_atl main 654 620 O_____________ hurdat_atl AL091892 36.6000 -66.2000 TS 45 0 9 16
1892295N23267 1892 55 NA NA NOT_NAMED 1892-10-29 03:00:00 TS 37.0325 -66.0853 main 620 578 P_____________ AL091892 37.0325 -66.0853 TS 42 0 9 10
1892295N23267 1892 55 NA NA NOT_NAMED 1892-10-29 06:00:00 TS 37.5000 -66.0000 40 hurdat_atl main 578 O_____________ hurdat_atl AL091892 37.5000 -66.0000 TS 40 0 9 9

About IBTrACS Database

This database is a web-friendly format of International Best Track Archive for Climate Stewardship (IBTrACS), a global best track data archive curated by NOAA dating back to 1842.

Updated: 2021-10-21